East Bangor, Pennsylvania
Current Conditions -  °F | °C
As of 7:51 AM on Sunday 21 Dec 2014 (Local Time) from KABE Reporting Station
Overcast Overcast  
Wind Chill: -1°   Ceiling: 11000
Heat Index: -1°   Visibility: 10mi
Dew Point: -7°   Wind: 3mph
Humidity: 66%   Direction: 320°NW
Pressure: 30.31"   Gusts: NA
Location:  40.8463°N, 75.1731°W
Report Text: KABE 211251Z 32003KT 10SM FEW033 OVC110 M01/M07 A3031 RMK AO2 SLP267 T10111067
Loading
Personal Weather Stations






























Interactive Weather Map New forecast layout! Learn more

10-Day Weather Forecast

Advertisements
Track Severe Weather on mobile